Time;durP1;ratioP1;P1;durP2;ratioP2;P2;SDS_P1;SDS_P2;PMS_P1;PMS_P2;Temp;Humidity;BMP_temperature;BMP_pressure;BME280_temperature;BME280_humidity;BME280_pressure;Samples;Min_cycle;Max_cycle;Signal;HPM_P1;HPM_P2
2023/12/12 00:01:34;;;;;;;99.18;57.20;;;;;;;;;;5035237;28;20495;-69
2023/12/12 00:04:00;;;;;;;108.80;58.47;;;;;;;;;;5029971;28;20040;-69
2023/12/12 00:06:26;;;;;;;105.68;58.38;;;;;;;;;;5034056;28;20026;-69
2023/12/12 00:08:52;;;;;;;102.68;57.38;;;;;;;;;;5020195;28;20199;-69
2023/12/12 00:11:18;;;;;;;108.07;59.47;;;;;;;;;;5032932;28;20113;-69
2023/12/12 00:13:44;;;;;;;91.47;53.78;;;;;;;;;;5022408;28;20076;-69
2023/12/12 00:16:10;;;;;;;99.63;54.65;;;;;;;;;;5033642;28;20056;-69
2023/12/12 00:18:36;;;;;;;95.17;55.27;;;;;;;;;;5025737;28;20041;-69
2023/12/12 00:21:03;;;;;;;92.45;55.05;;;;;;;;;;5031716;28;20141;-69
2023/12/12 00:23:29;;;;;;;94.13;54.42;;;;;;;;;;5021934;28;20468;-68
2023/12/12 00:25:55;;;;;;;95.78;56.30;;;;;;;;;;5026675;28;20064;-68
2023/12/12 00:28:21;;;;;;;93.05;52.45;;;;;;;;;;5026386;28;20057;-68
2023/12/12 00:30:47;;;;;;;89.22;53.80;;;;;;;;;;5029893;28;20100;-69
2023/12/12 00:33:13;;;;;;;89.70;53.15;;;;;;;;;;5031662;28;20343;-69
2023/12/12 00:35:39;;;;;;;89.07;52.17;;;;;;;;;;5028499;28;20032;-69
2023/12/12 00:38:05;;;;;;;95.32;55.00;;;;;;;;;;5024444;28;20025;-69
2023/12/12 00:40:33;;;;;;;93.60;53.55;;;;;;;;;;5029052;28;20041;-69
2023/12/12 00:42:59;;;;;;;91.50;53.78;;;;;;;;;;5019534;28;21453;-69
2023/12/12 00:45:25;;;;;;;88.32;53.40;;;;;;;;;;5027929;28;20037;-69
2023/12/12 00:47:50;;;;;;;102.28;55.60;;;;;;;;;;5031146;28;20391;-69
2023/12/12 00:50:16;;;;;;;85.20;52.75;;;;;;;;;;5029458;28;20029;-69
2023/12/12 00:52:42;;;;;;;92.85;54.97;;;;;;;;;;5030345;28;20489;-69
2023/12/12 00:55:09;;;;;;;99.05;54.35;;;;;;;;;;5030556;28;20150;-69
2023/12/12 00:57:35;;;;;;;89.03;54.95;;;;;;;;;;5030940;28;20040;-69
2023/12/12 01:00:03;;;;;;;91.80;54.40;;;;;;;;;;5028568;28;20026;-69
2023/12/12 01:02:29;;;;;;;93.30;54.47;;;;;;;;;;5033402;28;20026;-69
2023/12/12 01:04:55;;;;;;;90.88;51.60;;;;;;;;;;5031130;28;20051;-69
2023/12/12 01:07:21;;;;;;;97.20;55.42;;;;;;;;;;5025864;28;20017;-69
2023/12/12 01:09:47;;;;;;;90.97;51.47;;;;;;;;;;5016849;28;20479;-69
2023/12/12 01:12:13;;;;;;;88.60;53.13;;;;;;;;;;5019665;28;20026;-69
2023/12/12 01:14:39;;;;;;;91.32;53.83;;;;;;;;;;5021718;28;20026;-69
2023/12/12 01:17:05;;;;;;;91.65;52.60;;;;;;;;;;5026453;28;20112;-69
2023/12/12 01:19:31;;;;;;;88.03;52.95;;;;;;;;;;5026984;28;20135;-69
2023/12/12 01:21:57;;;;;;;95.22;53.22;;;;;;;;;;5024576;28;20128;-69
2023/12/12 01:24:23;;;;;;;89.75;55.40;;;25.50;99.90;;;;;;5015494;28;20024;-69
2023/12/12 01:26:48;;;;;;;86.88;51.80;;;24.80;99.90;;;;;;5027920;28;20052;-69
2023/12/12 01:29:18;;;;;;;89.38;51.30;;;24.80;99.90;;;;;;5028883;28;20029;-69
2023/12/12 01:31:43;;;;;;;89.93;52.63;;;24.80;99.90;;;;;;5018196;28;20503;-69
2023/12/12 01:34:09;;;;;;;88.43;51.28;;;24.80;99.90;;;;;;5024215;28;20052;-69
2023/12/12 01:36:35;;;;;;;86.82;52.42;;;24.80;99.90;;;;;;5030388;28;20120;-69
2023/12/12 01:39:01;;;;;;;89.32;52.50;;;24.80;99.90;;;;;;5032135;28;20045;-69
2023/12/12 01:41:27;;;;;;;86.35;51.30;;;24.70;99.90;;;;;;5029514;28;20084;-69
2023/12/12 01:43:52;;;;;;;90.78;51.75;;;24.70;99.90;;;;;;5027830;28;20053;-69
2023/12/12 01:46:20;;;;;;;84.85;53.33;;;24.80;99.90;;;;;;5024600;28;20025;-69
2023/12/12 01:48:47;;;;;;;88.88;52.30;;;24.70;99.90;;;;;;5028542;28;20037;-69
2023/12/12 01:51:14;;;;;;;95.97;53.58;;;24.70;99.90;;;;;;5023303;28;20087;-69
2023/12/12 01:53:46;;;;;;;95.57;57.53;;;24.70;99.90;;;;;;5026286;28;20044;-69
2023/12/12 01:56:14;;;;;;;94.90;54.55;;;24.70;99.90;;;;;;5030542;28;20116;-69
2023/12/12 01:58:42;;;;;;;94.70;55.80;;;24.80;99.90;;;;;;5026452;28;20041;-69
2023/12/12 02:01:08;;;;;;;99.00;54.75;;;24.80;99.90;;;;;;5033207;28;20038;-69
2023/12/12 02:03:35;;;;;;;100.93;58.20;;;24.70;99.90;;;;;;5020397;28;20056;-69
2023/12/12 02:06:01;;;;;;;92.15;54.17;;;24.60;99.90;;;;;;5027266;28;20360;-69
2023/12/12 02:08:28;;;;;;;100.78;56.67;;;24.70;99.90;;;;;;5020749;28;20041;-69
2023/12/12 02:10:53;;;;;;;95.18;56.15;;;24.70;99.90;;;;;;5017466;28;20032;-69
2023/12/12 02:13:19;;;;;;;93.53;56.23;;;24.70;99.90;;;;;;5029377;28;20026;-69
2023/12/12 02:15:45;;;;;;;103.35;57.60;;;24.70;99.90;;;;;;5036796;28;20049;-69
2023/12/12 02:18:11;;;;;;;102.20;57.92;;;24.50;99.90;;;;;;5029502;28;20036;-69
2023/12/12 02:20:38;;;;;;;96.15;55.25;;;;;;;;;;5020353;28;20564;-69
2023/12/12 02:23:03;;;;;;;90.55;53.85;;;;;;;;;;5015819;28;20483;-69
2023/12/12 02:25:30;;;;;;;96.23;55.67;;;;;;;;;;5015853;28;20041;-69
2023/12/12 02:27:56;;;;;;;95.93;54.95;;;;;;;;;;5034169;28;20021;-69
2023/12/12 02:30:22;;;;;;;89.57;53.60;;;;;;;;;;5028443;28;20490;-68
2023/12/12 02:32:48;;;;;;;86.27;51.93;;;;;;;;;;5029780;28;20029;-68
2023/12/12 02:35:14;;;;;;;85.45;52.80;;;;;;;;;;5025876;28;20022;-69
2023/12/12 02:37:40;;;;;;;85.93;50.72;;;;;;;;;;5031427;28;20030;-68
2023/12/12 02:40:06;;;;;;;88.85;53.38;;;;;;;;;;5024514;28;20033;-68
2023/12/12 02:42:32;;;;;;;92.40;53.13;;;;;;;;;;5020094;28;20029;-68
2023/12/12 02:44:58;;;;;;;87.10;53.43;;;;;;;;;;5024570;28;20071;-69
2023/12/12 02:47:24;;;;;;;84.87;51.67;;;;;;;;;;5031180;28;20025;-69
2023/12/12 02:49:50;;;;;;;89.88;53.83;;;;;;;;;;5020443;28;20030;-68
2023/12/12 02:52:16;;;;;;;88.03;52.67;;;;;;;;;;5027741;28;20021;-68
2023/12/12 02:54:42;;;;;;;90.93;54.38;;;;;;;;;;5026505;28;20033;-68
2023/12/12 02:57:08;;;;;;;92.37;52.83;;;;;;;;;;5031470;28;20032;-68
2023/12/12 02:59:34;;;;;;;93.45;55.72;;;;;;;;;;5029372;28;20494;-68
2023/12/12 03:02:00;;;;;;;88.95;52.55;;;;;;;;;;5020849;28;20133;-69
2023/12/12 03:04:26;;;;;;;86.13;52.13;;;;;;;;;;5024004;28;20017;-69
2023/12/12 03:06:52;;;;;;;88.82;50.20;;;;;;;;;;5031426;28;20431;-70
2023/12/12 03:09:18;;;;;;;85.07;50.33;;;;;;;;;;5026782;28;20106;-68
2023/12/12 03:11:45;;;;;;;82.50;50.10;;;;;;;;;;5022865;28;20113;-69
2023/12/12 03:14:11;;;;;;;83.13;50.20;;;;;;;;;;5036832;28;20017;-69
2023/12/12 03:16:37;;;;;;;83.15;51.55;;;;;;;;;;5035361;28;20030;-69
2023/12/12 03:19:04;;;;;;;82.85;49.83;;;;;;;;;;5033732;28;20021;-68
2023/12/12 03:21:30;;;;;;;82.53;51.03;;;;;;;;;;5016270;28;20537;-69
2023/12/12 03:23:56;;;;;;;85.35;51.28;;;;;;;;;;5023460;28;20026;-69
2023/12/12 03:26:22;;;;;;;86.35;51.97;;;;;;;;;;5030092;28;20117;-69
2023/12/12 03:28:48;;;;;;;86.85;50.78;;;;;;;;;;5026055;28;20095;-69
2023/12/12 03:31:14;;;;;;;92.70;53.13;;;;;;;;;;5032979;28;20046;-68
2023/12/12 03:33:40;;;;;;;87.83;50.47;;;;;;;;;;5023262;28;20094;-69
2023/12/12 03:36:09;;;;;;;81.87;50.63;;;;;;;;;;5021057;28;20034;-69
2023/12/12 03:38:35;;;;;;;80.63;49.13;;;;;;;;;;5024964;28;20021;-69
2023/12/12 03:41:01;;;;;;;82.38;49.88;;;;;;;;;;5028312;28;20064;-69
2023/12/12 03:43:27;;;;;;;78.10;46.85;;;;;;;;;;5042186;28;20103;-69
2023/12/12 03:45:53;;;;;;;81.77;49.03;;;;;;;;;;5025585;28;20032;-69
2023/12/12 03:48:19;;;;;;;75.07;47.57;;;;;;;;;;5021232;28;20170;-69
2023/12/12 03:50:45;;;;;;;85.43;52.33;;;;;;;;;;5023714;28;20544;-69
2023/12/12 03:53:11;;;;;;;84.20;50.50;;;;;;;;;;5025527;28;20021;-69
2023/12/12 03:55:37;;;;;;;81.10;48.80;;;;;;;;;;5029367;28;20478;-69
2023/12/12 03:58:03;;;;;;;83.22;49.63;;;;;;;;;;5032478;28;20024;-70
2023/12/12 04:00:29;;;;;;;82.17;49.90;;;;;;;;;;5028179;28;20528;-70
2023/12/12 04:02:55;;;;;;;85.73;51.30;;;;;;;;;;5032819;28;20029;-70
2023/12/12 04:05:21;;;;;;;77.97;48.53;;;;;;;;;;5030440;28;20036;-70
2023/12/12 04:07:47;;;;;;;77.38;48.72;;;;;;;;;;5028761;28;20030;-70
2023/12/12 04:10:13;;;;;;;75.22;47.08;;;;;;;;;;5028950;28;20105;-70
2023/12/12 04:12:39;;;;;;;79.38;48.65;;;;;;;;;;5027539;28;20036;-70
2023/12/12 04:15:05;;;;;;;84.87;50.17;;;;;;;;;;5029426;28;20478;-70
2023/12/12 04:17:31;;;;;;;74.80;48.30;;;;;;;;;;5029382;28;20059;-70
2023/12/12 04:19:57;;;;;;;81.47;49.53;;;;;;;;;;5016722;28;20041;-70
2023/12/12 04:22:23;;;;;;;79.90;49.80;;;;;;;;;;5030529;28;20048;-70
2023/12/12 04:24:49;;;;;;;78.43;48.23;;;;;;;;;;5028826;28;20018;-70
2023/12/12 04:27:15;;;;;;;74.90;47.90;;;;;;;;;;5031269;28;20331;-70
2023/12/12 04:29:41;;;;;;;74.80;47.47;;;;;;;;;;5033052;28;20454;-69
2023/12/12 04:32:07;;;;;;;74.53;46.70;;;;;;;;;;5032320;28;20133;-70
2023/12/12 04:34:34;;;;;;;77.80;48.00;;;;;;;;;;5027715;28;20124;-69
2023/12/12 04:37:03;;;;;;;76.18;48.22;;;;;;;;;;5028639;28;20435;-70
2023/12/12 04:39:29;;;;;;;73.10;48.53;;;;;;;;;;5018933;28;20037;-70
2023/12/12 04:41:55;;;;;;;73.27;48.23;;;;;;;;;;5029669;28;20391;-70
2023/12/12 04:44:21;;;;;;;69.77;46.50;;;;;;;;;;5030715;28;20029;-70
2023/12/12 04:46:47;;;;;;;74.22;46.30;;;;;;;;;;5017170;28;20033;-70
2023/12/12 04:49:13;;;;;;;81.10;49.40;;;;;;;;;;5030281;28;20124;-70
2023/12/12 04:51:39;;;;;;;80.43;50.17;;;;;;;;;;5014695;28;20484;-70
2023/12/12 04:54:05;;;;;;;76.93;48.10;;;;;;;;;;5028988;28;20018;-70
2023/12/12 04:56:31;;;;;;;82.33;48.43;;;;;;;;;;5032272;28;20034;-70
2023/12/12 04:58:57;;;;;;;77.72;46.55;;;;;;;;;;5029523;28;20030;-70
2023/12/12 05:01:23;;;;;;;85.30;49.00;;;;;;;;;;5022649;28;20041;-70
2023/12/12 05:03:49;;;;;;;80.47;48.97;;;;;;;;;;5015199;28;20034;-70
2023/12/12 05:06:15;;;;;;;84.83;50.00;;;;;;;;;;5021561;28;20037;-68
2023/12/12 05:08:41;;;;;;;80.07;48.97;;;;;;;;;;5027414;28;20392;-69
2023/12/12 05:11:08;;;;;;;85.22;50.03;;;;;;;;;;5024093;28;20029;-69
2023/12/12 05:13:34;;;;;;;85.70;50.93;;;;;;;;;;5028955;28;20026;-69
2023/12/12 05:16:00;;;;;;;88.10;50.90;;;;;;;;;;5024695;28;20059;-69
2023/12/12 05:18:26;;;;;;;89.90;50.27;;;;;;;;;;5024203;28;20025;-69
2023/12/12 05:20:52;;;;;;;89.53;50.63;;;;;;;;;;5023906;28;20149;-69
2023/12/12 05:23:18;;;;;;;85.23;52.10;;;;;;;;;;5032548;28;20025;-70
2023/12/12 05:25:45;;;;;;;87.43;51.22;;;;;;;;;;5031801;28;20028;-69
2023/12/12 05:28:11;;;;;;;87.72;51.33;;;;;;;;;;5028672;28;20167;-69
2023/12/12 05:30:37;;;;;;;83.15;50.03;;;;;;;;;;5025922;28;20399;-69
2023/12/12 05:33:03;;;;;;;83.05;50.80;;;;;;;;;;5025285;28;20079;-69
2023/12/12 05:35:29;;;;;;;84.45;49.72;;;;;;;;;;5023124;28;20030;-69
2023/12/12 05:37:55;;;;;;;86.33;51.43;;;;;;;;;;5031528;28;20021;-69
2023/12/12 05:40:21;;;;;;;83.03;50.07;;;;;;;;;;5013935;28;20033;-69
2023/12/12 05:42:48;;;;;;;88.87;52.50;;;;;;;;;;5025832;28;20455;-69
2023/12/12 05:45:14;;;;;;;86.07;50.55;;;;;;;;;;5028102;28;20026;-69
2023/12/12 05:47:40;;;;;;;85.13;49.75;;;;;;;;;;5022172;28;20036;-69
2023/12/12 05:50:07;;;;;;;85.70;51.73;;;;;;;;;;5032009;28;20017;-69
2023/12/12 05:52:33;;;;;;;85.27;48.17;;;;;;;;;;5020361;28;20104;-69
2023/12/12 05:54:59;;;;;;;90.03;50.15;;;;;;;;;;5025822;28;20160;-69
2023/12/12 05:57:25;;;;;;;82.90;48.53;;;;;;;;;;5030008;28;20018;-69
2023/12/12 05:59:51;;;;;;;88.13;51.43;;;;;;;;;;5030697;28;20037;-69
2023/12/12 06:02:16;;;;;;;83.18;49.92;;;;;;;;;;5023166;28;20029;-69
2023/12/12 06:04:46;;;;;;;83.90;49.97;;;;;;;;;;5021458;28;20447;-69
2023/12/12 06:07:12;;;;;;;86.70;51.40;;;;;;;;;;5021188;28;20443;-70
2023/12/12 06:09:38;;;;;;;95.33;52.10;;;;;;;;;;5028493;28;20066;-70
2023/12/12 06:12:04;;;;;;;84.90;51.17;;;;;;;;;;5010412;28;20036;-69
2023/12/12 06:14:30;;;;;;;85.27;50.60;;;;;;;;;;5028764;28;20071;-69
2023/12/12 06:16:57;;;;;;;82.90;48.63;;;;;;;;;;5040590;28;20506;-69
2023/12/12 06:19:24;;;;;;;87.33;47.63;;;;;;;;;;5031412;28;20490;-69
2023/12/12 06:21:53;;;;;;;87.00;49.67;;;;;;;;;;5022710;28;20038;-69
2023/12/12 06:24:19;;;;;;;80.97;49.10;;;;;;;;;;5028002;28;20025;-69
2023/12/12 06:26:46;;;;;;;79.47;49.70;;;;;;;;;;5027069;28;20048;-69
2023/12/12 06:29:12;;;;;;;83.07;49.77;;;;;;;;;;5029276;28;20033;-69
2023/12/12 06:31:39;;;;;;;80.40;49.00;;;;;;;;;;5026484;28;20427;-69
2023/12/12 06:34:05;;;;;;;79.20;49.17;;;;;;;;;;5022943;28;20022;-69
2023/12/12 06:36:31;;;;;;;81.07;49.97;;;;;;;;;;5020072;28;20036;-69
2023/12/12 06:38:57;;;;;;;86.70;51.10;;;;;;;;;;5019367;28;20029;-70
2023/12/12 06:41:23;;;;;;;83.80;49.20;;;;;;;;;;5023217;28;20124;-69
2023/12/12 06:43:49;;;;;;;83.80;50.40;;;;;;;;;;5024119;28;20153;-69
2023/12/12 06:46:18;;;;;;;76.93;49.07;;;;;;;;;;5019455;28;20428;-69
2023/12/12 06:48:44;;;;;;;83.55;49.70;;;;;;;;;;5014357;28;20026;-70
2023/12/12 06:51:10;;;;;;;82.70;48.58;;;;;;;;;;5018783;28;20030;-70
2023/12/12 06:53:36;;;;;;;79.50;49.83;;;;;;;;;;5023551;28;20587;-70
2023/12/12 06:56:02;;;;;;;77.27;47.47;;;;;;;;;;5018412;28;20076;-70
2023/12/12 06:58:29;;;;;;;78.15;48.78;;;;;;;;;;5027530;28;20108;-70
2023/12/12 07:00:55;;;;;;;84.55;49.88;;;;;;;;;;5026886;28;20103;-70
2023/12/12 07:03:24;;;;;;;78.13;49.77;;;;;;;;;;5018645;28;20065;-70
2023/12/12 07:05:53;;;;;;;80.07;49.78;;;;;;;;;;5029201;28;20104;-71
2023/12/12 07:08:19;;;;;;;74.50;47.67;;;;;;;;;;5022305;28;20053;-70
2023/12/12 07:10:48;;;;;;;84.93;51.10;;;;;;;;;;5019235;28;20021;-71
2023/12/12 07:13:14;;;;;;;81.90;47.63;;;;;;;;;;5025926;28;20443;-70
2023/12/12 07:15:40;;;;;;;82.68;51.65;;;;;;;;;;5022538;28;20505;-71
2023/12/12 07:18:10;;;;;;;77.57;47.65;;;;;;;;;;5028950;28;20410;-70
2023/12/12 07:20:36;;;;;;;78.53;49.90;;;;;;;;;;5034516;28;20022;-71
2023/12/12 07:23:04;;;;;;;85.00;49.03;;;;;;;;;;5021115;28;20105;-71
2023/12/12 07:25:30;;;;;;;80.38;48.78;;;;;;;;;;5028285;28;20021;-71
2023/12/12 07:27:56;;;;;;;76.13;46.90;;;;;;;;;;5023797;28;20030;-71
2023/12/12 07:30:22;;;;;;;79.88;49.42;;;;;;;;;;5022806;28;20046;-70
2023/12/12 07:32:48;;;;;;;81.17;46.93;;;;;;;;;;5031955;28;20117;-70
2023/12/12 07:35:14;;;;;;;78.70;48.83;;;;;;;;;;5025789;28;20104;-70
2023/12/12 07:37:40;;;;;;;78.90;49.20;;;;;;;;;;5034554;28;20036;-70
2023/12/12 07:40:06;;;;;;;81.93;49.65;;;;;;;;;;5034114;28;20083;-71
2023/12/12 07:42:33;;;;;;;68.67;45.03;;;;;;;;;;5034283;28;20168;-71
2023/12/12 07:44:59;;;;;;;76.67;48.37;;;;;;;;;;5032845;28;20030;-70
2023/12/12 07:47:25;;;;;;;76.65;46.92;;;;;;;;;;5032814;28;20033;-71
2023/12/12 07:49:51;;;;;;;76.10;47.53;;;;;;;;;;5034116;28;20116;-71
2023/12/12 07:52:17;;;;;;;69.70;43.85;;;;;;;;;;5025296;28;20190;-71
2023/12/12 07:54:46;;;;;;;73.97;46.67;;;;;;;;;;5028737;28;20040;-71
2023/12/12 07:57:12;;;;;;;78.00;47.13;;;;;;;;;;5034047;28;20030;-71
2023/12/12 07:59:38;;;;;;;72.53;45.33;;;;;;;;;;5034125;28;20142;-71
2023/12/12 08:02:04;;;;;;;70.67;45.03;;;;;;;;;;5033758;28;20061;-70
2023/12/12 08:04:30;;;;;;;67.60;44.15;;;;;;;;;;5033909;28;20114;-71
2023/12/12 08:06:57;;;;;;;67.75;44.17;;;;;;;;;;5033800;28;20025;-71
2023/12/12 08:09:23;;;;;;;71.63;45.03;;;;;;;;;;5034252;28;20057;-71
2023/12/12 08:11:49;;;;;;;71.40;45.38;;;;;;;;;;5033476;28;20038;-71
2023/12/12 08:14:15;;;;;;;70.77;44.90;;;;;;;;;;5033415;28;20382;-71
2023/12/12 08:16:41;;;;;;;70.87;45.57;;;;;;;;;;5033648;28;20030;-71
2023/12/12 08:19:07;;;;;;;67.03;43.80;;;;;;;;;;5033423;28;20075;-71
2023/12/12 08:21:34;;;;;;;73.33;47.00;;;;;;;;;;5033241;28;20136;-71
2023/12/12 08:24:00;;;;;;;70.57;45.90;;;;;;;;;;5033377;28;20113;-71
2023/12/12 08:26:27;;;;;;;64.85;43.47;;;;;;;;;;5033171;28;20482;-71
2023/12/12 08:28:53;;;;;;;68.60;44.47;;;;;;;;;;5033378;28;20022;-70
2023/12/12 08:31:19;;;;;;;69.40;44.03;;;;;;;;;;5032948;28;20151;-71
2023/12/12 08:33:45;;;;;;;61.83;41.10;;;;;;;;;;5033501;28;20021;-71
2023/12/12 08:36:11;;;;;;;64.95;41.42;;;;;;;;;;5033262;28;20514;-71
2023/12/12 08:38:37;;;;;;;60.92;41.10;;;;;;;;;;5033322;28;20021;-71
2023/12/12 08:41:03;;;;;;;63.03;41.65;;;;;;;;;;5032975;28;20033;-72
2023/12/12 08:43:30;;;;;;;58.40;40.15;;;;;;;;;;5033084;28;20101;-71
2023/12/12 08:45:56;;;;;;;62.22;41.53;;;;;;;;;;5033238;28;20458;-71
2023/12/12 08:48:23;;;;;;;59.00;40.38;;;;;;;;;;5019011;28;20021;-70
2023/12/12 08:50:50;;;;;;;64.20;42.22;;;;;;;;;;5031603;28;20029;-70
2023/12/12 08:53:16;;;;;;;62.87;40.97;;;;;;;;;;5032674;28;20099;-70
2023/12/12 08:55:42;;;;;;;57.65;39.92;;;;;;;;;;5033003;28;20108;-70
2023/12/12 08:58:09;;;;;;;60.80;39.85;;;;;;;;;;5032794;28;20064;-70
2023/12/12 09:00:35;;;;;;;61.67;40.75;;;;;;;;;;5032757;28;20029;-71
2023/12/12 09:03:01;;;;;;;61.93;39.97;;;;;;;;;;5032794;28;20343;-71
2023/12/12 09:05:27;;;;;;;61.85;41.85;;;;;;;;;;5030433;28;20068;-71
2023/12/12 09:07:52;;;;;;;57.35;40.80;;;;;;;;;;5023806;28;20026;-71
2023/12/12 09:10:18;;;;;;;67.23;42.10;;;;;;;;;;5032901;28;20316;-71
2023/12/12 09:12:44;;;;;;;60.83;40.83;;;;;;;;;;5032600;28;20112;-71
2023/12/12 09:15:10;;;;;;;62.60;41.63;;;;;;;;;;5032427;28;20018;-72
2023/12/12 09:17:49;;;;;;;58.90;41.35;;;;;;;;;;5032758;28;20456;-71
2023/12/12 09:20:15;;;;;;;60.88;41.25;;;;;;;;;;5027193;28;20041;-71
2023/12/12 09:22:41;;;;;;;61.25;40.45;;;;;;;;;;5032326;28;20064;-72
2023/12/12 09:25:07;;;;;;;60.33;40.07;;;;;;;;;;5031661;28;20025;-71
2023/12/12 09:27:33;;;;;;;63.20;42.15;;;;;;;;;;5031904;28;20031;-71
2023/12/12 09:29:59;;;;;;;62.33;41.47;;;;;;;;;;5030980;28;20100;-71
2023/12/12 09:32:25;;;;;;;67.13;41.45;;;;;;;;;;5032430;28;20124;-72
2023/12/12 09:34:52;;;;;;;68.05;43.83;;;;;;;;;;5032203;28;20013;-71
2023/12/12 09:37:22;;;;;;;69.03;45.33;;;;;;;;;;5032374;28;20025;-72
2023/12/12 09:39:48;;;;;;;69.45;42.60;;;;;;;;;;5032137;28;20025;-72
2023/12/12 09:42:16;;;;;;;67.83;45.37;;;;;;;;;;5031903;28;20041;-72
2023/12/12 09:44:45;;;;;;;66.88;44.38;;;;;;;;;;5032078;28;20065;-72
2023/12/12 09:47:13;;;;;;;68.68;45.03;;;;;;;;;;5026590;28;20033;-72
2023/12/12 09:49:39;;;;;;;70.05;45.75;;;;;;;;;;5027689;28;20104;-72
2023/12/12 09:52:05;;;;;;;73.18;48.38;;;;;;;;;;5030293;28;20153;-69
2023/12/12 09:54:31;;;;;;;83.60;52.28;;;;;;;;;;5030478;28;20407;-72
2023/12/12 09:56:58;;;;;;;71.85;46.50;;;;;;;;;;5029889;28;20131;-72
2023/12/12 09:59:24;;;;;;;80.93;51.67;;;;;;;;;;5031665;28;20029;-70
2023/12/12 10:01:51;;;;;;;86.55;51.83;;;;;;;;;;5031571;28;20034;-72
2023/12/12 10:04:18;;;;;;;80.68;51.70;;;;;;;;;;5031548;28;20133;-69
2023/12/12 10:06:49;;;;;;;85.70;53.63;;;;;;;;;;5031732;28;20034;-71
2023/12/12 10:09:15;;;;;;;79.70;49.75;;;;;;;;;;5031617;28;20116;-72
2023/12/12 10:11:41;;;;;;;84.25;54.03;;;;;;;;;;5031610;28;20083;-72
2023/12/12 10:14:08;;;;;;;80.63;53.42;;;;;;;;;;5031368;28;20026;-71
2023/12/12 10:16:34;;;;;;;80.95;52.42;;;;;;;;;;5031435;28;20025;-71
2023/12/12 10:19:04;;;;;;;80.57;50.60;;;;;;;;;;5031442;28;20378;-72
2023/12/12 10:21:30;;;;;;;78.28;49.45;;;;;;;;;;5031088;28;20047;-71
2023/12/12 10:23:56;;;;;;;71.32;49.28;;;;;;;;;;5031527;28;20044;-70
2023/12/12 10:26:25;;;;;;;73.13;49.25;;;;;;;;;;5031227;28;20033;-71
2023/12/12 10:28:52;;;;;;;67.95;46.17;;;;;;;;;;5031543;28;20060;-71
2023/12/12 10:31:19;;;;;;;67.88;45.88;;;;;;;;;;5031232;28;20507;-71
2023/12/12 10:33:45;;;;;;;67.15;45.28;;;;;;;;;;5030051;28;20022;-71
2023/12/12 10:36:11;;;;;;;70.40;46.42;;;;;;;;;;5031283;28;20395;-71
2023/12/12 10:38:40;;;;;;;72.93;47.75;;;;;;;;;;5035516;28;20101;-71
2023/12/12 10:41:10;;;;;;;76.93;48.65;;;;;;;;;;5035206;28;20432;-71
2023/12/12 10:43:40;;;;;;;67.45;45.42;;;;;;;;;;5035280;28;20029;-71
2023/12/12 10:46:09;;;;;;;66.95;45.75;;;;;;;;;;5035249;28;20048;-71
2023/12/12 10:48:36;;;;;;;68.15;44.83;;;;;;;;;;5035195;28;20021;-71
2023/12/12 10:51:02;;;;;;;64.15;43.22;;;;;;;;;;5035339;28;20076;-71
2023/12/12 10:53:29;;;;;;;61.88;41.65;;;;;;;;;;5035095;28;20124;-71
2023/12/12 10:55:56;;;;;;;60.95;42.95;;;;;;;;;;5035036;28;20029;-71
2023/12/12 10:58:23;;;;;;;58.35;40.50;;;;;;;;;;5025183;28;20357;-71
2023/12/12 11:00:49;;;;;;;61.63;40.97;;;;;;;;;;5034615;28;20071;-71
2023/12/12 11:03:16;;;;;;;62.88;42.22;;;;;;;;;;5021558;28;20037;-71
2023/12/12 11:05:42;;;;;;;55.97;39.85;;;;;;;;;;5017330;28;22303;-63
2023/12/12 11:08:09;;;;;;;56.25;39.90;;;;;;;;;;5025380;28;20029;-60
2023/12/12 11:10:35;;;;;;;58.25;40.65;;;;;;;;;;5019572;28;20065;-60
2023/12/12 11:13:02;;;;;;;60.83;41.47;;;;;;;;;;5024882;28;20036;-61
2023/12/12 11:15:28;;;;;;;56.08;39.78;;;;;;;;;;5024091;28;20076;-61
2023/12/12 11:17:54;;;;;;;55.03;40.00;;;;;;;;;;5031089;28;20037;-61
2023/12/12 11:20:20;;;;;;;58.50;40.45;;;;;;;;;;5026512;28;20030;-66
2023/12/12 11:22:48;;;;;;;59.90;42.00;;;;;;;;;;5027158;28;20056;-69
2023/12/12 11:25:19;;;;;;;61.95;42.15;;;;;;;;;;5018338;28;20041;-73
2023/12/12 11:27:46;;;;;;;61.20;41.97;;;;;;;;;;5022117;28;20079;-69
2023/12/12 11:30:13;;;;;;;60.72;41.42;;;;;;;;;;5026122;28;20100;-69
2023/12/12 11:32:41;;;;;;;59.97;41.30;;;;;;;;;;5024784;28;20030;-69
2023/12/12 11:35:25;;;;;;;55.03;39.42;;;;;;;;;;5022714;28;20060;-67
2023/12/12 11:37:54;;;;;;;55.77;40.40;;;;;;;;;;5022471;28;20022;-60
2023/12/12 11:40:20;;;;;;;55.38;38.72;;;;;;;;;;5034419;28;20108;-60
2023/12/12 11:42:46;;;;;;;61.92;40.13;;;;;;;;;;5034479;28;20056;-61
2023/12/12 11:45:12;;;;;;;53.13;38.72;;;;;;;;;;5033158;28;20402;-60
2023/12/12 11:47:38;;;;;;;56.45;39.95;;;;;;;;;;5033152;28;20112;-61
2023/12/12 11:50:18;;;;;;;62.50;42.45;;;;;;;;;;5033509;28;20440;-61
2023/12/12 11:52:45;;;;;;;58.20;41.05;;;;;;;;;;5034421;28;20028;-60
2023/12/12 11:55:18;;;;;;;54.83;39.10;;;;;;;;;;5022077;28;20030;-61
2023/12/12 11:57:45;;;;;;;57.38;40.97;;;;;;;;;;5033713;28;20032;-61
2023/12/12 12:00:13;;;;;;;56.88;40.00;;;;;;;;;;5034154;28;20021;-61
2023/12/12 12:02:40;;;;;;;58.28;41.85;;;;;;;;;;5034052;28;20052;-60
2023/12/12 12:05:06;;;;;;;57.50;41.65;;;;;;;;;;5034130;28;20021;-61
2023/12/12 12:07:32;;;;;;;56.75;42.08;;;;;;;;;;5033981;28;20026;-60
2023/12/12 12:09:59;;;;;;;59.10;41.70;;;;;;;;;;5034237;28;20056;-61
2023/12/12 12:12:25;;;;;;;60.33;44.28;;;;;;;;;;5033888;28;20041;-60
2023/12/12 12:14:51;;;;;;;62.97;44.58;;;;;;;;;;5032639;28;20514;-60
2023/12/12 12:17:17;;;;;;;68.65;47.05;;;;;;;;;;5033836;28;20064;-60
2023/12/12 12:19:43;;;;;;;60.03;44.53;;;;;;;;;;5033674;28;20101;-60
2023/12/12 12:22:10;;;;;;;60.30;42.03;;;;;;;;;;5033871;28;20442;-61
2023/12/12 12:24:43;;;;;;;60.58;42.20;;;;;;;;;;5033782;28;20036;-60
2023/12/12 12:27:09;;;;;;;67.10;43.95;;;;;;;;;;5033641;28;20533;-60
2023/12/12 12:29:35;;;;;;;62.45;43.55;;;;;;;;;;5033494;28;20057;-60
2023/12/12 12:32:15;;;;;;;57.50;40.85;;;;;;;;;;5033272;28;20135;-60
2023/12/12 12:34:41;;;;;;;57.75;41.83;;;;;;;;;;5033710;28;20041;-60
2023/12/12 12:37:07;;;;;;;60.90;43.22;;;;;;;;;;5033421;28;20030;-60
2023/12/12 12:39:43;;;;;;;57.90;41.63;;;;;;;;;;5033409;28;20022;-60
2023/12/12 12:42:10;;;;;;;68.75;45.47;;;;;;;;;;5033227;28;20506;-60
2023/12/12 12:44:37;;;;;;;61.97;42.28;;;;;;;;;;5033342;28;20043;-60
2023/12/12 12:47:03;;;;;;;60.22;41.42;;;;;;;;;;5033221;28;20108;-60
2023/12/12 12:49:29;;;;;;;61.30;40.03;;;;;;;;;;5033166;28;20029;-61
2023/12/12 12:51:55;;;;;;;60.47;41.30;;;;;;;;;;5033035;28;20036;-60
2023/12/12 12:54:21;;;;;;;59.75;40.72;;;;;;;;;;5033351;28;20520;-61
2023/12/12 12:56:48;;;;;;;56.35;41.60;;;;;;;;;;5033116;28;20026;-61
2023/12/12 12:59:18;;;;;;;61.72;41.83;;;;;;;;;;5033119;28;20044;-61
2023/12/12 13:01:44;;;;;;;57.47;41.25;;;;;;;;;;5031950;28;20042;-60
2023/12/12 13:04:13;;;;;;;61.72;41.88;;;;;;;;;;5031155;28;20124;-60
2023/12/12 13:06:39;;;;;;;61.65;40.83;;;;;;;;;;5032937;28;20135;-61
2023/12/12 13:09:09;;;;;;;58.15;41.22;;;;;;;;;;5032762;28;20112;-60
2023/12/12 13:11:36;;;;;;;60.13;42.10;;;;;;;;;;5033179;28;20029;-60
2023/12/12 13:14:02;;;;;;;64.05;42.80;;;;;;;;;;5032735;28;20036;-61
2023/12/12 13:16:28;;;;;;;59.60;41.20;;;;;;;;;;5032730;28;20030;-60
2023/12/12 13:18:54;;;;;;;58.45;40.17;;;;;;;;;;5032588;28;20057;-60
2023/12/12 13:21:20;;;;;;;57.38;40.88;;;;;;;;;;5032497;28;20083;-60
2023/12/12 13:23:46;;;;;;;67.78;42.28;;;;;;;;;;5031142;28;20026;-60
2023/12/12 13:26:12;;;;;;;61.50;42.80;;;;;;;;;;5031041;28;20029;-60
2023/12/12 13:28:39;;;;;;;65.20;43.40;;;;;;;;;;5032470;28;20029;-60
2023/12/12 13:31:05;;;;;;;62.78;43.72;;;;;;;;;;5032193;28;20514;-59
2023/12/12 13:33:31;;;;;;;63.83;44.08;;;;;;;;;;5032382;28;20026;-60
2023/12/12 13:35:57;;;;;;;65.03;42.70;;;;;;;;;;5032408;28;20104;-60
2023/12/12 13:38:23;;;;;;;60.33;41.55;;;;;;;;;;5032206;28;20139;-60
2023/12/12 13:40:49;;;;;;;67.90;44.03;;;;;;;;;;5032142;28;20053;-60
2023/12/12 13:43:15;;;;;;;62.10;43.13;;;;;;;;;;5032035;28;20068;-60
2023/12/12 13:45:42;;;;;;;62.45;42.03;;;;;;;;;;5032138;28;20033;-60
2023/12/12 13:48:08;;;;;;;65.70;42.78;;;;;;;;;;5032207;28;20075;-59
2023/12/12 13:50:34;;;;;;;69.72;44.47;;;;;;;;;;5032101;28;20036;-60
2023/12/12 13:53:00;;;;;;;71.97;45.97;;;;;;;;;;5032238;28;20021;-60
2023/12/12 13:55:26;;;;;;;65.60;43.20;;;;;;;;;;5032007;28;20022;-60
2023/12/12 13:57:52;;;;;;;72.78;44.55;;;;;;;;;;5031844;28;20092;-60
2023/12/12 14:00:19;;;;;;;67.20;44.83;;;;;;;;;;5031998;28;20160;-59
2023/12/12 14:02:45;;;;;;;69.32;45.50;;;;;;;;;;5031783;28;20029;-59
2023/12/12 14:05:11;;;;;;;70.20;44.05;;;;;;;;;;5031809;28;20026;-62